Time;durP1;ratioP1;P1;durP2;ratioP2;P2;SDS_P1;SDS_P2;PMS_P1;PMS_P2;Temp;Humidity;BMP_temperature;BMP_pressure;BME280_temperature;BME280_humidity;BME280_pressure;Samples;Min_cycle;Max_cycle;Signal;HPM_P1;HPM_P2
2023/06/24 00:00:46;;;;;;;3.87;3.40;;;;;;;;;;5109596;28;20207;-33
2023/06/24 00:03:16;;;;;;;3.37;3.07;;;;;;;;;;5106560;28;20209;-32
2023/06/24 00:05:49;;;;;;;3.43;3.10;;;;;;;;;;5099137;28;20205;-34
2023/06/24 00:08:19;;;;;;;3.30;3.00;;;;;;;;;;5087923;28;20219;-33
2023/06/24 00:10:46;;;;;;;4.37;3.13;;;;;;;;;;5092948;28;20204;-33
2023/06/24 00:13:15;;;;;;;3.43;3.13;;;;;;;;;;5094403;28;20192;-34
2023/06/24 00:15:42;;;;;;;3.27;2.97;;;;;;;;;;5110091;28;20239;-33
2023/06/24 00:18:10;;;;;;;3.30;3.00;;;;;;;;;;5099114;28;20310;-33
2023/06/24 00:20:37;;;;;;;4.57;3.80;;;;;;;;;;5106618;28;20276;-36
2023/06/24 00:23:04;;;;;;;4.03;3.40;;;;;;;;;;5101019;28;20204;-31
2023/06/24 00:25:31;;;;;;;4.63;3.10;;;;;;;;;;5097003;28;20283;-35
2023/06/24 00:27:59;;;;;;;5.03;3.53;;;;;;;;;;5101894;28;20220;-32
2023/06/24 00:30:27;;;;;;;5.53;3.40;;;;;;;;;;5110675;28;20200;-34
2023/06/24 00:32:54;;;;;;;3.27;2.90;;;;;;;;;;5107565;28;20208;-31
2023/06/24 00:35:21;;;;;;;3.83;3.43;;;;;;;;;;5101037;28;20203;-34
2023/06/24 00:37:49;;;;;;;4.57;3.07;;;;;;;;;;5094630;28;20230;-35
2023/06/24 00:40:16;;;;;;;3.87;3.47;;;;;;;;;;5095554;28;20200;-37
2023/06/24 00:42:44;;;;;;;3.57;3.13;;;;;;;;;;5096378;28;20204;-33
2023/06/24 00:45:12;;;;;;;3.77;3.37;;;;;;;;;;5100441;28;20208;-36
2023/06/24 00:47:41;;;;;;;3.43;3.13;;;;;;;;;;5093106;28;20240;-33
2023/06/24 00:50:11;;;;;;;3.83;3.43;;;;;;;;;;5096593;28;20192;-32
2023/06/24 00:52:42;;;;;;;4.90;3.23;;;;;;;;;;5093479;28;20258;-34
2023/06/24 00:55:09;;;;;;;4.07;3.20;;;;;;;;;;5098418;28;20198;-34
2023/06/24 00:57:38;;;;;;;4.53;3.73;;;;;;;;;;5091748;28;20212;-34
2023/06/24 01:00:09;;;;;;;3.87;3.23;;;;;;;;;;5092003;28;20208;-33
2023/06/24 01:02:37;;;;;;;3.47;3.00;;;;;;;;;;5099593;28;20203;-35
2023/06/24 01:05:07;;;;;;;4.00;3.60;;;;;;;;;;5099533;28;20200;-33
2023/06/24 01:07:36;;;;;;;3.00;2.80;;;;;;;;;;5092019;28;20403;-33
2023/06/24 01:10:05;;;;;;;4.20;2.90;;;;;;;;;;5098343;28;20229;-35
2023/06/24 01:12:32;;;;;;;3.50;3.20;;;;;;;;;;5099941;28;20199;-31
2023/06/24 01:15:00;;;;;;;3.73;2.87;;;;;;;;;;5114671;28;20213;-35
2023/06/24 01:17:31;;;;;;;3.77;3.10;;;;;;;;;;5103311;28;20261;-36
2023/06/24 01:20:07;;;;;;;3.43;3.13;;;;;;;;;;5105397;28;20283;-36
2023/06/24 01:22:52;;;;;;;4.23;3.57;;;;;;;;;;5098208;28;20203;-34
2023/06/24 01:25:28;;;;;;;3.33;3.03;;;;;;;;;;5090520;28;20264;-33
2023/06/24 01:28:05;;;;;;;3.67;3.27;;;;;;;;;;5103480;28;20231;-33
2023/06/24 01:30:51;;;;;;;4.07;3.67;;;;;;;;;;5112549;28;20285;-33
2023/06/24 01:33:21;;;;;;;4.23;2.90;;;;;;;;;;5109477;28;20214;-34
2023/06/24 01:35:49;;;;;;;3.47;2.97;;;;;;;;;;5095568;28;20208;-32
2023/06/24 01:38:20;;;;;;;3.83;3.40;;;;;;;;;;5098832;28;20220;-34
2023/06/24 01:40:47;;;;;;;3.00;2.70;;;;;;;;;;5099685;28;20222;-34
2023/06/24 01:43:15;;;;;;;4.97;3.37;;;;;;;;;;5096824;28;20635;-37
2023/06/24 01:45:43;;;;;;;5.37;3.70;;;;;;;;;;5112225;28;20203;-36
2023/06/24 01:48:14;;;;;;;3.80;3.33;;;;;;;;;;5103686;28;20232;-32
2023/06/24 01:50:45;;;;;;;4.87;3.37;;;;;;;;;;5091210;28;20245;-33
2023/06/24 01:53:14;;;;;;;3.97;3.00;;;;;;;;;;5090171;28;20204;-32
2023/06/24 01:55:43;;;;;;;3.67;3.37;;;;;;;;;;5093474;28;20205;-31
2023/06/24 01:58:10;;;;;;;4.03;3.63;;;;;;;;;;5095515;28;20284;-33
2023/06/24 02:00:38;;;;;;;3.50;3.20;;;;;;;;;;5112248;28;20233;-31
2023/06/24 02:03:05;;;;;;;4.00;3.60;;;;;;;;;;5109256;28;20263;-35
2023/06/24 02:05:33;;;;;;;3.23;3.00;;;;;;;;;;5110820;28;20697;-30
2023/06/24 02:08:02;;;;;;;3.77;3.43;;;;;;;;;;5097890;28;20227;-32
2023/06/24 02:10:30;;;;;;;4.17;3.30;;;;;;;;;;5092942;28;20208;-32
2023/06/24 02:12:58;;;;;;;3.70;3.40;;;;;;;;;;5102283;28;20202;-32
2023/06/24 02:15:25;;;;;;;4.80;3.30;;;;;;;;;;5112008;28;20207;-35
2023/06/24 02:17:56;;;;;;;4.30;3.50;;;;;;;;;;5100102;28;20223;-34
2023/06/24 02:20:27;;;;;;;4.30;3.20;;;;;;;;;;5111236;28;20495;-33
2023/06/24 02:22:54;;;;;;;3.80;3.50;;;;;;;;;;5110007;28;20732;-35
2023/06/24 02:25:23;;;;;;;3.97;3.57;;;;;;;;;;5099371;28;20209;-30
2023/06/24 02:27:51;;;;;;;3.40;3.10;;;;;;;;;;5100180;28;20241;-32
2023/06/24 02:30:18;;;;;;;3.93;3.53;;;;;;;;;;5091198;28;20211;-37
2023/06/24 02:32:45;;;;;;;4.00;3.60;;;;;;;;;;5090630;28;20209;-37
2023/06/24 02:35:12;;;;;;;3.60;3.30;;;;;;;;;;5093221;28;20202;-32
2023/06/24 02:37:39;;;;;;;4.53;3.37;;;;;;;;;;5098345;28;20312;-32
2023/06/24 02:40:09;;;;;;;3.40;3.07;;;;;;;;;;5095097;28;20203;-33
2023/06/24 02:42:38;;;;;;;3.57;3.23;;;;;;;;;;5102582;28;20266;-35
2023/06/24 02:45:06;;;;;;;3.47;3.17;;;;;;;;;;5090915;28;20216;-31
2023/06/24 02:47:34;;;;;;;3.83;3.00;;;;;;;;;;5279165;23;20213;-27
2023/06/24 02:50:01;;;;;;;4.13;3.20;;;;;;;;;;5052274;28;20211;-28
2023/06/24 02:52:29;;;;;;;3.93;3.43;;;;;;;;;;5052844;28;20233;-25
2023/06/24 02:54:56;;;;;;;4.87;3.23;;;;;;;;;;5037855;28;20218;-28
2023/06/24 02:57:25;;;;;;;3.60;3.30;;;;;;;;;;5049531;28;20196;-27
2023/06/24 02:59:53;;;;;;;3.63;3.33;;;;;;;;;;5050068;28;20208;-27
2023/06/24 03:02:21;;;;;;;3.77;3.30;;;;;;;;;;5047922;28;20208;-25
2023/06/24 03:04:48;;;;;;;3.60;3.23;;;;;;;;;;5049385;28;20244;-27
2023/06/24 03:07:16;;;;;;;3.30;2.93;;;;;;;;;;5049163;28;20227;-26
2023/06/24 03:09:43;;;;;;;6.13;3.73;;;;;;;;;;5037817;28;20280;-27
2023/06/24 03:12:10;;;;;;;3.50;3.20;;;;;;;;;;5044714;28;20203;-26
2023/06/24 03:14:38;;;;;;;3.90;3.30;;;;;;;;;;5049576;28;20209;-29
2023/06/24 03:17:06;;;;;;;3.87;2.83;;;;;;;;;;5042805;28;20286;-27
2023/06/24 03:19:33;;;;;;;3.83;3.47;;;;;;;;;;5049369;28;20200;-27
2023/06/24 03:22:00;;;;;;;4.17;3.77;;;;;;;;;;5049879;28;20204;-28
2023/06/24 03:24:27;;;;;;;4.03;3.03;;;;;;;;;;5038386;28;20205;-26
2023/06/24 03:26:56;;;;;;;3.33;3.03;;;;;;;;;;5043437;28;20204;-28
2023/06/24 03:29:23;;;;;;;3.40;3.10;;;;;;;;;;5050190;28;20314;-27
2023/06/24 03:31:51;;;;;;;3.47;3.17;;;;;;;;;;5049479;28;20294;-27
2023/06/24 03:34:19;;;;;;;6.53;3.40;;;;;;;;;;5045643;28;20210;-27
2023/06/24 03:36:46;;;;;;;5.23;3.83;;;;;;;;;;5051486;28;20214;-26
2023/06/24 03:39:13;;;;;;;5.73;3.27;;;;;;;;;;5046287;28;20219;-26
2023/06/24 03:41:40;;;;;;;3.83;3.40;;;;;;;;;;5048765;28;20208;-28
2023/06/24 03:44:08;;;;;;;4.07;3.67;;;;;;;;;;5051764;28;20211;-27
2023/06/24 03:46:35;;;;;;;3.67;3.30;;;;;;;;;;5045231;28;20216;-26
2023/06/24 03:49:02;;;;;;;4.13;3.47;;;;;;;;;;5036356;28;20232;-29
2023/06/24 03:51:30;;;;;;;3.90;3.20;;;;;;;;;;5051438;28;20286;-26
2023/06/24 03:54:00;;;;;;;4.13;3.13;;;;;;;;;;5043621;28;20209;-28
2023/06/24 03:56:27;;;;;;;3.03;2.73;;;;;;;;;;5045466;28;20200;-28
2023/06/24 03:58:54;;;;;;;4.30;3.57;;;;;;;;;;5051288;28;20231;-26
2023/06/24 04:01:22;;;;;;;4.20;3.80;;;;;;;;;;5051394;28;20204;-25
2023/06/24 04:03:49;;;;;;;4.50;4.10;;;;;;;;;;5042187;28;20209;-27
2023/06/24 04:06:16;;;;;;;5.33;3.70;;;;;;;;;;5047458;28;20213;-25
2023/06/24 04:08:44;;;;;;;5.00;3.33;;;;;;;;;;5052359;28;20243;-28
2023/06/24 04:11:12;;;;;;;3.87;3.43;;;;;;;;;;5055887;28;20211;-27
2023/06/24 04:13:40;;;;;;;3.43;3.13;;;;;;;;;;5055362;28;20286;-23
2023/06/24 04:16:07;;;;;;;4.03;3.50;;;;;;;;;;5054830;28;20208;-24
2023/06/24 04:18:34;;;;;;;4.80;3.80;;;;;;;;;;5042966;28;20221;-26
2023/06/24 04:21:01;;;;;;;6.03;3.87;;;;;;;;;;5054797;28;20200;-27
2023/06/24 04:23:28;;;;;;;4.53;3.60;;;;;;;;;;5047900;28;20208;-28
2023/06/24 04:25:56;;;;;;;4.97;3.73;;;;;;;;;;5048287;28;20215;-26
2023/06/24 04:28:23;;;;;;;5.27;3.90;;;;;;;;;;5054320;28;20227;-25
2023/06/24 04:30:51;;;;;;;5.33;3.63;;;;;;;;;;5054996;28;20206;-25
2023/06/24 04:33:18;;;;;;;6.10;4.40;;;;;;;;;;5049799;28;20208;-29
2023/06/24 04:35:45;;;;;;;4.97;3.87;;;;;;;;;;5049331;28;20201;-28
2023/06/24 04:38:17;;;;;;;5.70;4.33;;;;;;;;;;5048467;28;20223;-27
2023/06/24 04:40:44;;;;;;;6.13;4.10;;;;;;;;;;5046064;28;20267;-28
2023/06/24 04:43:13;;;;;;;7.73;4.20;;;;;;;;;;5054700;28;20204;-27
2023/06/24 04:45:40;;;;;;;5.77;3.50;;;;;;;;;;5054527;28;20209;-29
2023/06/24 04:48:07;;;;;;;4.60;3.50;;;;;;;;;;5046587;28;20231;-27
2023/06/24 04:50:34;;;;;;;4.07;3.77;;;;;;;;;;5051201;28;20204;-27
2023/06/24 04:53:02;;;;;;;6.80;4.13;;;;;;;;;;5049881;28;20207;-28
2023/06/24 04:55:30;;;;;;;6.70;4.67;;;;;;;;;;5046484;28;20209;-27
2023/06/24 04:57:57;;;;;;;5.17;4.67;;;;;;;;;;5053986;28;20220;-25
2023/06/24 05:00:26;;;;;;;6.97;4.73;;;;;;;;;;5054466;28;20216;-27
2023/06/24 05:02:53;;;;;;;5.53;4.53;;;;;;;;;;5044093;28;20209;-26
2023/06/24 05:05:21;;;;;;;5.20;4.20;;;;;;;;;;5052375;28;20203;-24
2023/06/24 05:07:48;;;;;;;7.33;4.70;;;;;;;;;;5053756;28;20231;-27
2023/06/24 05:10:15;;;;;;;6.23;4.70;;;;;;;;;;5049985;28;20291;-25
2023/06/24 05:12:42;;;;;;;5.20;4.70;;;;;;;;;;5054188;28;20219;-27
2023/06/24 05:15:10;;;;;;;6.43;4.87;;;;;;;;;;5055710;28;20212;-27
2023/06/24 05:17:39;;;;;;;5.17;4.67;;;;;;;;;;5046637;28;20228;-26
2023/06/24 05:20:06;;;;;;;5.10;4.60;;;;;;;;;;5055113;28;20211;-27
2023/06/24 05:22:33;;;;;;;5.80;4.80;;;;;;;;;;5054542;28;20209;-27
2023/06/24 05:25:00;;;;;;;5.07;4.57;;;;;;;;;;5041110;28;20208;-26
2023/06/24 05:27:28;;;;;;;6.93;5.30;;;;;;;;;;5053718;28;20216;-28
2023/06/24 05:29:55;;;;;;;5.17;4.67;;;;;;;;;;5054387;28;20225;-23
2023/06/24 05:32:22;;;;;;;6.13;5.53;;;;;;;;;;5052285;28;20206;-27
2023/06/24 05:34:50;;;;;;;5.23;4.73;;;;;;;;;;5048514;28;20347;-28
2023/06/24 05:37:17;;;;;;;5.60;4.60;;;;;;;;;;5053175;28;20244;-29
2023/06/24 05:39:45;;;;;;;5.60;4.23;;;;;;;;;;5047840;28;20209;-27
2023/06/24 05:42:12;;;;;;;8.00;4.53;;;;;;;;;;5053399;28;20215;-25
2023/06/24 05:44:39;;;;;;;5.60;5.00;;;;;;;;;;5053536;28;20201;-27
2023/06/24 05:47:06;;;;;;;8.07;4.33;;;;;;;;;;5048691;28;20224;-25
2023/06/24 05:49:33;;;;;;;5.80;4.90;;;;;;;;;;5053038;28;20229;-26
2023/06/24 05:52:01;;;;;;;4.67;4.00;;;;;;;;;;5053389;28;20209;-29
2023/06/24 05:54:28;;;;;;;6.90;4.93;;;;;;;;;;5042777;28;20211;-29
2023/06/24 05:56:56;;;;;;;5.05;4.45;;;;;;;;;;5047576;28;20248;-26
2023/06/24 05:59:23;;;;;;;5.13;4.60;;;;;;;;;;5053470;28;20217;-28
2023/06/24 06:01:50;;;;;;;6.75;4.60;;;;;;;;;;5046795;28;20209;-27
2023/06/24 06:04:17;;;;;;;5.93;4.78;;;;;;;;;;5053049;28;20202;-29
2023/06/24 06:06:44;;;;;;;5.22;4.40;;;;;;;;;;5052250;28;20668;-26
2023/06/24 06:09:12;;;;;;;5.82;4.43;;;;;;;;;;5041447;28;20235;-26
2023/06/24 06:11:40;;;;;;;4.80;4.30;;;;;;;;;;5045089;28;20209;-25
2023/06/24 06:14:07;;;;;;;5.25;3.97;;;;;;;;;;5053050;28;20206;-29
2023/06/24 06:16:34;;;;;;;5.80;4.68;;;;;;;;;;5048634;28;20217;-24
2023/06/24 06:19:01;;;;;;;6.32;4.63;;;;;;;;;;5039846;28;20228;-28
2023/06/24 06:21:28;;;;;;;7.88;4.63;;;;;;;;;;5053101;28;20198;-26
2023/06/24 06:23:55;;;;;;;5.20;4.70;;;;;;;;;;5045341;28;20207;-28
2023/06/24 06:26:24;;;;;;;4.85;4.38;;;;;;;;;;5047322;28;20202;-28
2023/06/24 06:28:53;;;;;;;6.25;4.20;;;;;;;;;;5051923;28;20225;-25
2023/06/24 06:31:21;;;;;;;5.90;4.15;;;;;;;;;;5053526;28;20220;-26
2023/06/24 06:33:48;;;;;;;4.75;4.10;;;;;;;;;;5049296;28;20214;-28
2023/06/24 06:36:15;;;;;;;6.45;3.80;;;;;;;;;;5052611;28;20197;-27
2023/06/24 06:38:42;;;;;;;7.13;4.50;;;;;;;;;;5041004;28;20226;-26
2023/06/24 06:41:09;;;;;;;4.30;3.90;;;;;;;;;;5043338;28;20298;-28
2023/06/24 06:43:38;;;;;;;3.95;3.65;;;;;;;;;;5053030;28;20880;-27
2023/06/24 06:46:05;;;;;;;4.28;3.88;;;;;;;;;;5053242;28;20213;-26
2023/06/24 06:48:32;;;;;;;4.05;3.65;;;;;;;;;;5047257;28;20231;-27
2023/06/24 06:50:59;;;;;;;4.40;3.67;;;;;;;;;;5052077;28;20207;-27
2023/06/24 06:53:26;;;;;;;4.18;3.78;;;;;;;;;;5046767;28;20222;-25
2023/06/24 06:55:53;;;;;;;4.60;3.42;;;;;;;;;;5048936;28;20212;-28
2023/06/24 06:58:21;;;;;;;4.32;3.90;;;;;;;;;;5052311;28;20215;-28
2023/06/24 07:00:50;;;;;;;3.97;3.67;;;;;;;;;;5052847;28;20202;-29
2023/06/24 07:03:17;;;;;;;4.15;3.75;;;;;;;;;;5047099;28;20258;-27
2023/06/24 07:05:44;;;;;;;3.88;3.53;;;;;;;;;;5046935;28;20211;-26
2023/06/24 07:08:11;;;;;;;4.25;3.85;;;;;;;;;;5048633;28;20225;-28
2023/06/24 07:10:40;;;;;;;3.67;3.38;;;;;;;;;;5043504;28;20235;-29
2023/06/24 07:13:07;;;;;;;3.55;3.25;;;;;;;;;;5052294;28;20199;-27
2023/06/24 07:15:34;;;;;;;3.80;3.50;;;;;;;;;;5052814;28;20211;-24
2023/06/24 07:18:03;;;;;;;3.72;3.33;;;;;;;;;;5048481;28;20240;-27
2023/06/24 07:20:30;;;;;;;3.88;3.20;;;;;;;;;;5051652;28;20218;-30
2023/06/24 07:22:57;;;;;;;4.38;3.20;;;;;;;;;;5050951;28;20209;-29
2023/06/24 07:25:26;;;;;;;3.78;3.20;;;;;;;;;;5046454;28;20216;-28
2023/06/24 07:27:53;;;;;;;5.85;3.10;;;;;;;;;;5051010;28;20224;-31
2023/06/24 07:30:20;;;;;;;4.53;3.50;;;;;;;;;;5052344;28;20240;-27
2023/06/24 07:32:47;;;;;;;4.28;3.42;;;;;;;;;;5042154;28;20217;-32
2023/06/24 07:35:16;;;;;;;3.72;3.38;;;;;;;;;;5045276;28;20570;-30
2023/06/24 07:37:43;;;;;;;3.47;3.17;;;;;;;;;;5051502;28;20214;-31
2023/06/24 07:40:10;;;;;;;3.72;3.42;;;;;;;;;;5040452;28;20201;-28
2023/06/24 07:42:37;;;;;;;3.63;3.33;;;;;;;;;;5055910;28;20205;-27
2023/06/24 07:45:05;;;;;;;3.58;3.15;;;;;;;;;;5055976;28;20216;-27
2023/06/24 07:47:32;;;;;;;3.83;2.92;;;;;;;;;;5049969;28;20240;-26
2023/06/24 07:49:59;;;;;;;4.75;3.60;;;;;;;;;;5053379;28;20222;-29
2023/06/24 07:52:28;;;;;;;4.63;2.80;;;;;;;;;;5055509;28;20296;-27
2023/06/24 07:54:55;;;;;;;3.58;2.80;;;;;;;;;;5050657;28;20206;-28
2023/06/24 07:57:22;;;;;;;3.08;2.78;;;;;;;;;;5054635;28;20209;-28
2023/06/24 07:59:49;;;;;;;3.10;2.80;;;;;;;;;;5055432;28;20205;-27
2023/06/24 08:02:16;;;;;;;3.28;2.78;;;;;;;;;;5047988;28;20202;-28
2023/06/24 08:04:43;;;;;;;5.25;3.70;;;;;;;;;;5052398;28;20456;-27
2023/06/24 08:07:10;;;;;;;3.17;2.92;;;;;;;;;;5054746;28;20208;-27
2023/06/24 08:09:39;;;;;;;2.90;2.70;;;;;;;;;;5046112;28;20229;-25
2023/06/24 08:12:06;;;;;;;3.08;2.78;;;;;;;;;;5055527;28;20198;-28
2023/06/24 08:14:33;;;;;;;4.32;3.28;;;;;;;;;;5055403;28;20209;-25
2023/06/24 08:17:00;;;;;;;4.38;2.92;;;;;;;;;;5055263;28;20202;-28
2023/06/24 08:19:29;;;;;;;3.72;3.05;;;;;;;;;;5052725;28;20225;-27
2023/06/24 08:21:56;;;;;;;2.85;2.65;;;;;;;;;;5055814;28;20213;-28
2023/06/24 08:24:23;;;;;;;3.40;3.10;;;;;;;;;;5048710;28;20213;-26
2023/06/24 08:26:52;;;;;;;3.60;2.83;;;;;;;;;;5052987;28;20213;-29
2023/06/24 08:29:20;;;;;;;4.68;3.58;;;;;;;;;;5055314;28;20233;-27
2023/06/24 08:31:47;;;;;;;3.40;3.00;;;;;;;;;;5054539;28;20205;-27
2023/06/24 08:34:14;;;;;;;3.30;3.00;;;;;;;;;;5046412;28;20209;-26
2023/06/24 08:36:41;;;;;;;6.03;3.15;;;;;;;;;;5054234;28;20202;-29
2023/06/24 08:39:09;;;;;;;3.35;2.92;;;;;;;;;;5049813;28;20369;-29
2023/06/24 08:41:36;;;;;;;4.80;2.90;;;;;;;;;;5054236;28;20202;-29
2023/06/24 08:44:04;;;;;;;3.33;3.03;;;;;;;;;;5046804;28;20212;-31
2023/06/24 08:46:35;;;;;;;4.15;2.70;;;;;;;;;;5050990;28;20318;-27
2023/06/24 08:54:08;;;;;;;2.80;2.60;;;;;;;;;;5085666;28;20208;-30
2023/06/24 08:56:38;;;;;;;3.33;3.03;;;;;;;;;;5093892;28;20233;-32
2023/06/24 08:59:06;;;;;;;2.53;2.33;;;;;;;;;;5074661;28;20221;-30
2023/06/24 09:01:34;;;;;;;3.25;2.60;;;;;;;;;;5076772;28;20281;-33
2023/06/24 09:04:01;;;;;;;2.90;2.70;;;;;;;;;;5082459;28;20196;-30
2023/06/24 09:06:28;;;;;;;5.07;3.00;;;;;;;;;;5085779;28;20200;-31
2023/06/24 09:08:55;;;;;;;3.10;2.65;;;;;;;;;;5086909;28;20232;-29
2023/06/24 09:11:26;;;;;;;2.53;2.33;;;;;;;;;;5073255;28;20211;-31
2023/06/24 09:13:56;;;;;;;3.47;2.95;;;;;;;;;;5084562;28;20205;-30
2023/06/24 09:16:25;;;;;;;4.47;2.42;;;;;;;;;;5094192;28;20212;-29
2023/06/24 09:18:53;;;;;;;3.17;2.80;;;;;;;;;;5086243;28;20323;-31
2023/06/24 09:21:24;;;;;;;3.30;2.50;;;;;;;;;;5086566;28;20200;-31
2023/06/24 09:23:52;;;;;;;3.17;2.50;;;;;;;;;;5081006;28;20216;-33
2023/06/24 09:26:19;;;;;;;2.53;2.30;;;;;;;;;;5082732;28;20197;-30
2023/06/24 09:28:49;;;;;;;4.50;2.80;;;;;;;;;;5083863;28;20302;-30
2023/06/24 09:31:17;;;;;;;3.38;2.88;;;;;;;;;;5094220;28;20207;-31
2023/06/24 09:33:45;;;;;;;3.55;2.53;;;;;;;;;;5085419;28;20273;-30
2023/06/24 09:36:13;;;;;;;2.92;2.50;;;;;;;;;;5093887;28;20631;-29
2023/06/24 09:38:41;;;;;;;3.47;2.50;;;;;;;;;;5088440;28;20243;-31
2023/06/24 09:41:08;;;;;;;2.55;2.40;;;;;;;;;;5078191;28;20235;-30
2023/06/24 09:43:36;;;;;;;2.65;2.13;;;;;;;;;;5090378;28;20198;-30
2023/06/24 09:46:04;;;;;;;2.60;2.40;;;;;;;;;;5094387;28;20230;-26
2023/06/24 09:48:31;;;;;;;3.88;2.42;;;;;;;;;;5087934;28;20227;-31
2023/06/24 09:51:01;;;;;;;2.75;2.55;;;;;;;;;;5073696;28;20220;-31
2023/06/24 09:53:31;;;;;;;4.47;2.65;;;;;;;;;;5086637;28;20212;-32
2023/06/24 09:55:58;;;;;;;2.95;2.55;;;;;;;;;;5081542;28;20220;-31
2023/06/24 09:58:26;;;;;;;2.90;2.38;;;;;;;;;;5081823;28;20231;-30
2023/06/24 10:00:53;;;;;;;2.80;2.42;;;;;;;;;;5072922;28;20217;-32
2023/06/24 10:03:21;;;;;;;2.78;2.58;;;;;;;;;;5089230;28;20203;-31
2023/06/24 10:05:51;;;;;;;7.07;2.30;;;;;;;;;;5085689;28;20211;-29
2023/06/24 10:08:20;;;;;;;3.60;2.92;;;;;;;;;;5089187;28;20741;-31
2023/06/24 10:10:47;;;;;;;10.45;6.22;;;;;;;;;;5079378;28;20231;-31
2023/06/24 10:13:15;;;;;;;3.70;2.33;;;;;;;;;;5088288;28;20299;-33
2023/06/24 10:15:42;;;;;;;2.60;2.40;;;;;;;;;;5072747;28;20205;-30
2023/06/24 10:18:24;;;;;;;2.60;2.40;;;;;;;;;;5086900;28;20229;-27
2023/06/24 10:20:51;;;;;;;2.80;2.40;;;;;;;;;;5085075;28;20204;-28
2023/06/24 10:23:19;;;;;;;4.00;2.55;;;;;;;;;;5092141;28;20207;-32
2023/06/24 10:25:48;;;;;;;2.60;2.40;;;;;;;;;;5089822;28;20211;-28
2023/06/24 10:28:15;;;;;;;2.63;2.42;;;;;;;;;;5084263;28;20304;-31
2023/06/24 10:30:55;;;;;;;2.20;2.10;;;;;;;;;;5093621;28;20230;-31
2023/06/24 10:33:30;;;;;;;2.10;1.98;;;;;;;;;;5081837;28;20224;-30
2023/06/24 10:35:57;;;;;;;2.47;2.30;;;;;;;;;;5081073;28;20203;-30
2023/06/24 10:38:25;;;;;;;3.28;2.53;;;;;;;;;;5081355;28;20223;-31
2023/06/24 10:40:52;;;;;;;2.65;2.45;;;;;;;;;;5079047;28;20207;-28
2023/06/24 10:43:30;;;;;;;3.22;2.42;;;;;;;;;;5086910;28;20458;-29
2023/06/24 10:45:58;;;;;;;3.03;2.72;;;;;;;;;;5072846;28;20218;-32
2023/06/24 10:48:25;;;;;;;2.78;2.33;;;;;;;;;;5072738;28;20239;-30
2023/06/24 10:50:52;;;;;;;2.47;2.05;;;;;;;;;;5080671;28;20229;-31
2023/06/24 10:53:19;;;;;;;1.90;1.80;;;;;;;;;;5087459;28;20466;-29
2023/06/24 10:55:48;;;;;;;3.28;2.28;;;;;;;;;;5071683;28;20219;-32
2023/06/24 10:58:15;;;;;;;2.40;2.10;;;;;;;;;;5085038;28;20271;-30
2023/06/24 11:00:45;;;;;;;2.60;2.40;;;;;;;;;;5092847;28;20208;-30
2023/06/24 11:03:13;;;;;;;2.63;2.30;;;;;;;;;;5081995;28;20234;-28
2023/06/24 11:05:41;;;;;;;2.58;2.38;;;;;;;;;;5088732;28;20591;-29
2023/06/24 11:08:08;;;;;;;3.03;2.40;;;;;;;;;;5069999;28;20228;-31
2023/06/24 11:10:35;;;;;;;2.78;2.42;;;;;;;;;;5085604;28;20230;-30
2023/06/24 11:13:07;;;;;;;2.53;2.10;;;;;;;;;;5075962;28;20206;-33
2023/06/24 11:15:34;;;;;;;2.15;2.03;;;;;;;;;;5092266;28;20191;-33
2023/06/24 11:18:04;;;;;;;2.53;2.15;;;;;;;;;;5090343;28;20254;-28
2023/06/24 11:20:33;;;;;;;2.30;2.10;;;;;;;;;;5079711;28;20207;-30
2023/06/24 11:23:00;;;;;;;2.25;2.05;;;;;;;;;;5089794;28;20198;-29
2023/06/24 11:25:27;;;;;;;3.75;2.28;;;;;;;;;;5072443;28;20199;-30
2023/06/24 11:27:54;;;;;;;2.10;1.90;;;;;;;;;;5079420;28;20227;-31
2023/06/24 11:30:23;;;;;;;2.65;2.28;;;;;;;;;;5071992;28;20261;-28
2023/06/24 11:32:50;;;;;;;2.25;2.13;;;;;;;;;;5072682;28;20245;-31
2023/06/24 11:35:17;;;;;;;2.55;2.35;;;;;;;;;;5087828;28;20210;-32
2023/06/24 11:37:45;;;;;;;1.80;1.70;;;;;;;;;;5082898;28;20228;-29
2023/06/24 11:40:13;;;;;;;2.40;2.20;;;;;;;;;;5075579;28;20207;-32
2023/06/24 11:42:42;;;;;;;1.92;1.83;;;;;;;;;;5075486;28;20203;-30
2023/06/24 11:45:11;;;;;;;2.88;2.42;;;;;;;;;;5092392;28;20293;-33
2023/06/24 11:47:40;;;;;;;3.08;2.78;;;;;;;;;;5083185;28;20219;-31
2023/06/24 11:50:07;;;;;;;2.35;1.88;;;;;;;;;;5084254;28;20221;-29
2023/06/24 11:52:40;;;;;;;2.13;1.75;;;;;;;;;;5092000;28;20214;-31
2023/06/24 11:55:13;;;;;;;2.05;1.75;;;;;;;;;;5085690;28;20215;-29
2023/06/24 11:57:49;;;;;;;2.90;2.30;;;;;;;;;;5087922;28;20230;-33
2023/06/24 12:00:17;;;;;;;2.08;1.98;;;;;;;;;;5091932;28;20211;-29
2023/06/24 12:02:45;;;;;;;2.35;2.17;;;;;;;;;;5083748;28;20294;-31
2023/06/24 12:05:12;;;;;;;1.80;1.70;;;;;;;;;;5071570;28;20202;-28
2023/06/24 12:07:40;;;;;;;2.03;1.85;;;;;;;;;;5079532;28;20223;-32
2023/06/24 12:10:09;;;;;;;2.40;2.20;;;;;;;;;;5077034;28;20235;-33
2023/06/24 12:12:36;;;;;;;2.47;2.28;;;;;;;;;;5088030;28;20259;-32
2023/06/24 12:15:03;;;;;;;4.35;2.00;;;;;;;;;;5092229;28;20211;-29
2023/06/24 12:17:31;;;;;;;2.00;1.90;;;;;;;;;;5085475;28;20225;-27
2023/06/24 12:19:59;;;;;;;2.40;2.20;;;;;;;;;;5079728;28;20207;-32
2023/06/24 12:22:27;;;;;;;3.40;2.10;;;;;;;;;;5071662;28;20204;-29
2023/06/24 12:24:54;;;;;;;2.55;2.35;;;;;;;;;;5072989;28;20262;-29
2023/06/24 12:27:21;;;;;;;3.40;2.42;;;;;;;;;;5078488;28;20210;-29
2023/06/24 12:29:48;;;;;;;2.42;2.20;;;;;;;;;;5094887;28;20200;-31
2023/06/24 12:32:15;;;;;;;2.75;2.00;;;;;;;;;;5091682;28;20204;-31
2023/06/24 12:34:42;;;;;;;2.40;2.20;;;;;;;;;;5087083;28;20208;-30
2023/06/24 12:37:11;;;;;;;2.10;2.00;;;;;;;;;;5088563;28;20228;-33
2023/06/24 12:39:38;;;;;;;2.75;2.00;;;;;;;;;;5079391;28;20207;-32
2023/06/24 12:42:06;;;;;;;2.33;2.13;;;;;;;;;;5091532;28;20199;-29
2023/06/24 12:44:33;;;;;;;2.03;1.92;;;;;;;;;;5079255;28;20266;-30
2023/06/24 12:47:00;;;;;;;2.00;1.90;;;;;;;;;;5074741;28;20215;-33
2023/06/24 12:49:27;;;;;;;2.78;2.20;;;;;;;;;;5083508;28;20220;-32
2023/06/24 12:51:54;;;;;;;2.20;2.00;;;;;;;;;;5093652;28;20227;-30
2023/06/24 12:54:22;;;;;;;3.35;2.40;;;;;;;;;;5090084;28;20198;-32
2023/06/24 12:56:50;;;;;;;4.68;2.35;;;;;;;;;;5075823;28;20208;-28
2023/06/24 12:59:17;;;;;;;2.30;2.10;;;;;;;;;;5074793;28;20230;-29
2023/06/24 13:01:44;;;;;;;2.17;1.98;;;;;;;;;;5073703;28;20215;-32
2023/06/24 13:04:11;;;;;;;2.10;1.90;;;;;;;;;;5081318;28;20211;-31
2023/06/24 13:06:39;;;;;;;2.08;1.95;;;;;;;;;;5085231;28;20195;-30
2023/06/24 13:09:06;;;;;;;4.10;2.38;;;;;;;;;;5079927;28;20224;-29
2023/06/24 13:11:35;;;;;;;2.40;2.20;;;;;;;;;;5086265;28;20232;-30
2023/06/24 13:14:02;;;;;;;2.30;2.20;;;;;;;;;;5074315;28;20214;-28
2023/06/24 13:16:29;;;;;;;2.30;2.08;;;;;;;;;;5073644;28;20212;-30
2023/06/24 13:18:56;;;;;;;3.97;2.38;;;;;;;;;;5080500;28;20315;-31
2023/06/24 13:21:23;;;;;;;2.67;1.95;;;;;;;;;;5092188;28;20208;-30
2023/06/24 13:23:50;;;;;;;2.42;2.22;;;;;;;;;;5087065;28;20651;-30
2023/06/24 13:26:17;;;;;;;2.80;2.60;;;;;;;;;;5078611;28;20215;-30
2023/06/24 13:28:46;;;;;;;2.53;2.30;;;;;;;;;;5083214;28;20231;-31
2023/06/24 13:31:13;;;;;;;2.20;2.00;;;;;;;;;;5090715;28;20224;-33
2023/06/24 13:33:40;;;;;;;1.90;1.80;;;;;;;;;;5082448;28;20204;-32
2023/06/24 13:36:08;;;;;;;3.10;2.50;;;;;;;;;;5081135;28;20281;-28
2023/06/24 13:38:35;;;;;;;6.55;2.40;;;;;;;;;;5072830;28;20300;-29
2023/06/24 13:41:03;;;;;;;2.50;2.20;;;;;;;;;;5075615;28;20205;-29
2023/06/24 13:43:30;;;;;;;2.45;2.25;;;;;;;;;;5093591;28;20224;-32
2023/06/24 13:45:58;;;;;;;2.40;2.20;;;;;;;;;;5093987;28;20213;-28
2023/06/24 13:48:25;;;;;;;2.80;2.10;;;;;;;;;;5088995;28;20223;-32
2023/06/24 13:50:52;;;;;;;2.75;2.35;;;;;;;;;;5089539;28;20222;-30
2023/06/24 13:53:19;;;;;;;3.20;2.00;;;;;;;;;;5077574;28;20227;-30
2023/06/24 13:55:46;;;;;;;2.50;2.30;;;;;;;;;;5088177;28;20218;-28
2023/06/24 13:58:13;;;;;;;2.42;2.22;;;;;;;;;;5092714;28;20527;-30
2023/06/24 14:00:41;;;;;;;2.45;2.35;;;;;;;;;;5093866;28;20206;-30
2023/06/24 14:03:09;;;;;;;3.17;2.22;;;;;;;;;;5082508;28;20212;-31
2023/06/24 14:05:36;;;;;;;2.35;2.15;;;;;;;;;;5091596;28;20562;-31
2023/06/24 14:08:03;;;;;;;2.50;2.30;;;;;;;;;;5078240;28;20232;-30
2023/06/24 14:10:30;;;;;;;3.97;2.30;;;;;;;;;;5084702;28;20211;-30
2023/06/24 14:12:57;;;;;;;2.58;2.33;;;;;;;;;;5082044;28;20201;-32
2023/06/24 14:15:24;;;;;;;2.22;2.05;;;;;;;;;;5073358;28;20215;-31
2023/06/24 14:17:52;;;;;;;1.98;1.77;;;;;;;;;;5081593;28;20220;-31
2023/06/24 14:20:20;;;;;;;5.07;2.33;;;;;;;;;;5085317;28;20203;-32
2023/06/24 14:22:47;;;;;;;2.58;2.20;;;;;;;;;;5093927;28;20204;-31
2023/06/24 14:25:14;;;;;;;2.15;2.05;;;;;;;;;;5083567;28;20208;-31
2023/06/24 14:27:41;;;;;;;2.30;2.10;;;;;;;;;;5071012;28;20224;-31
2023/06/24 14:30:09;;;;;;;2.33;2.10;;;;;;;;;;5072881;28;20208;-28
2023/06/24 14:32:36;;;;;;;2.72;2.53;;;;;;;;;;5073106;28;20228;-30
2023/06/24 14:35:03;;;;;;;2.30;2.10;;;;;;;;;;5078464;28;20205;-32
2023/06/24 14:37:32;;;;;;;2.33;2.22;;;;;;;;;;5080553;28;20217;-32
2023/06/24 14:39:59;;;;;;;2.35;2.15;;;;;;;;;;5085636;28;20209;-29
2023/06/24 14:42:26;;;;;;;2.28;2.13;;;;;;;;;;5084149;28;20200;-32
2023/06/24 14:44:53;;;;;;;2.20;2.10;;;;;;;;;;5073590;28;20205;-29
2023/06/24 14:47:20;;;;;;;2.50;2.30;;;;;;;;;;5072596;28;20246;-31
2023/06/24 14:49:47;;;;;;;3.72;2.20;;;;;;;;;;5080480;28;20211;-30
2023/06/24 14:52:14;;;;;;;2.58;2.10;;;;;;;;;;5325963;22;20226;-27